Time,TemperatureF,DewpointF,PressureIn,WindDirection,WindDirectionDegrees,WindSpeedMPH,WindSpeedGustMPH,Humidity,HourlyPrecipIn,Conditions,Clouds,dailyrainin,SoftwareType,DateUTC
2013-06-24 00:44:00,85.0,36.0,29.92,WSW,249,6.0,8.0,17,-99.99,,,-99.99,,2013-06-24 06:44:00,
2013-06-24 01:13:00,83.0,35.0,29.93,West,259,7.0,10.0,18,-99.99,,,-99.99,,2013-06-24 07:13:00,
2013-06-24 01:46:00,86.0,33.0,29.93,West,274,9.0,13.0,15,-99.99,,,-99.99,,2013-06-24 07:46:00,
2013-06-24 02:26:00,82.0,34.0,29.95,South,182,7.0,8.0,18,-99.99,,,-99.99,,2013-06-24 08:26:00,
2013-06-24 02:45:00,81.0,35.0,29.95,SSW,210,7.0,8.0,19,-99.99,,,-99.99,,2013-06-24 08:45:00,
2013-06-24 03:15:00,80.0,33.0,29.95,SW,217,8.0,9.0,18,-99.99,,,-99.99,,2013-06-24 09:15:00,
2013-06-24 04:37:00,73.0,33.0,29.95,WSW,249,5.0,6.0,23,-99.99,,,-99.99,,2013-06-24 10:37:00,
2013-06-24 04:48:00,74.0,32.0,29.95,SW,231,5.0,6.0,22,-99.99,,,-99.99,,2013-06-24 10:48:00,
2013-06-24 05:14:00,73.0,33.0,29.96,SSE,164,5.0,5.0,23,-99.99,,,-99.99,,2013-06-24 11:14:00,
2013-06-24 05:45:00,73.0,33.0,29.97,South,182,7.0,8.0,23,-99.99,,,-99.99,,2013-06-24 11:45:00,
2013-06-24 06:16:00,74.0,33.0,29.98,SSW,192,7.0,8.0,23,-99.99,,,-99.99,,2013-06-24 12:16:00,
2013-06-24 06:23:00,74.0,34.0,29.98,SSW,200,6.0,7.0,23,-99.99,,,-99.99,,2013-06-24 12:23:00,
2013-06-24 07:43:00,75.0,35.0,30.01,SSW,195,2.0,3.0,23,-99.99,,,-99.99,,2013-06-24 13:43:00,
2013-06-24 08:44:00,82.0,33.0,30.02,NNE,32,3.0,5.0,17,-99.99,,,-99.99,,2013-06-24 14:44:00,
2013-06-24 09:45:00,86.0,34.0,30.04,North,358,5.0,7.0,16,-99.99,,,-99.99,,2013-06-24 15:45:00,
2013-06-24 10:14:00,87.0,36.0,30.04,NNW,331,9.0,12.0,16,-99.99,,,-99.99,,2013-06-24 16:14:00,
2013-06-24 10:23:00,88.0,36.0,30.04,West,262,2.0,5.0,16,-99.99,,,-99.99,,2013-06-24 16:23:00,
2013-06-24 10:34:00,89.0,35.0,30.04,NW,322,5.0,9.0,15,-99.99,,,-99.99,,2013-06-24 16:34:00,
2013-06-24 10:43:00,89.0,35.0,30.04,NNW,347,10.0,15.0,15,-99.99,,,-99.99,,2013-06-24 16:43:00,
2013-06-24 11:13:00,90.0,36.0,30.03,NNW,335,8.0,10.0,15,-99.99,,,-99.99,,2013-06-24 17:13:00,
2013-06-24 11:45:00,93.0,37.0,30.04,NW,313,10.0,16.0,14,-99.99,,,-99.99,,2013-06-24 17:45:00,
2013-06-24 12:24:00,92.0,36.0,30.03,West,281,12.0,16.0,14,-99.99,,,-99.99,,2013-06-24 18:24:00,
2013-06-24 13:13:00,92.0,36.0,30.01,West,274,5.0,8.0,14,-99.99,,,-99.99,,2013-06-24 19:13:00,
2013-06-24 14:12:00,94.0,38.0,29.99,SW,235,13.0,22.0,14,-99.99,,,-99.99,,2013-06-24 20:12:00,
2013-06-24 14:23:00,95.0,37.0,29.99,West,267,13.0,16.0,13,-99.99,,,-99.99,,2013-06-24 20:23:00,
2013-06-24 14:45:00,95.0,38.0,29.98,SW,229,7.0,10.0,14,-99.99,,,-99.99,,2013-06-24 20:45:00,
2013-06-24 15:25:00,96.0,37.0,29.97,SW,218,10.0,16.0,13,-99.99,,,-99.99,,2013-06-24 21:25:00,
2013-06-24 15:53:00,97.0,38.0,29.95,West,267,9.0,17.0,13,-99.99,,,-99.99,,2013-06-24 21:53:00,
2013-06-24 16:35:00,98.0,41.0,29.93,West,268,12.0,16.0,14,-99.99,,,-99.99,,2013-06-24 22:35:00,
2013-06-24 16:46:00,98.0,41.0,29.93,WSW,238,10.0,18.0,14,-99.99,,,-99.99,,2013-06-24 22:46:00,
2013-06-24 16:54:00,98.0,41.0,29.92,WSW,249,12.0,21.0,14,-99.99,,,-99.99,,2013-06-24 22:54:00,
2013-06-24 17:44:00,97.0,42.0,29.91,WSW,240,10.0,14.0,15,-99.99,,,-99.99,,2013-06-24 23:44:00,
2013-06-24 17:53:00,98.0,40.0,29.90,WNW,282,13.0,17.0,14,-99.99,,,-99.99,,2013-06-24 23:53:00,
2013-06-24 18:12:00,98.0,40.0,29.90,SW,232,12.0,15.0,14,-99.99,,,-99.99,,2013-06-25 00:12:00,
2013-06-24 18:34:00,97.0,40.0,29.90,SW,229,12.0,18.0,14,-99.99,,,-99.99,,2013-06-25 00:34:00,
2013-06-24 18:54:00,97.0,40.0,29.89,West,259,14.0,18.0,14,-99.99,,,-99.99,,2013-06-25 00:54:00,
2013-06-24 19:15:00,97.0,40.0,29.90,WSW,254,13.0,17.0,14,-99.99,,,-99.99,,2013-06-25 01:15:00,
2013-06-24 19:44:00,97.0,41.0,29.90,West,262,10.0,14.0,15,-99.99,,,-99.99,,2013-06-25 01:44:00,
2013-06-24 20:15:00,95.0,40.0,29.90,West,261,9.0,15.0,15,-99.99,,,-99.99,,2013-06-25 02:15:00,
2013-06-24 20:24:00,95.0,42.0,29.90,WSW,256,12.0,17.0,16,-99.99,,,-99.99,,2013-06-25 02:24:00,
2013-06-24 20:44:00,95.0,43.0,29.91,SW,232,9.0,14.0,17,-99.99,,,-99.99,,2013-06-25 02:44:00,
2013-06-24 21:13:00,91.0,46.0,29.93,SSW,196,15.0,18.0,21,-99.99,,,-99.99,,2013-06-25 03:13:00,
2013-06-24 22:11:00,90.0,45.0,29.95,SW,226,9.0,10.0,21,-99.99,,,-99.99,,2013-06-25 04:11:00,
2013-06-24 22:43:00,88.0,45.0,29.97,SW,229,9.0,13.0,22,-99.99,,,-99.99,,2013-06-25 04:43:00,
2013-06-24 23:11:00,89.0,45.0,29.97,SW,217,8.0,10.0,22,-99.99,,,-99.99,,2013-06-25 05:11:00,
2013-06-24 23:44:00,86.0,46.0,29.97,SSW,206,8.0,12.0,25,-99.99,,,-99.99,,2013-06-25 05:44:00,